createdAt,value
2023-05-19T00:02:20.985Z,10.24
2023-05-19T00:04:52.325Z,10.22
2023-05-19T00:07:27.113Z,10.20
2023-05-19T00:09:58.304Z,10.19
2023-05-19T00:12:29.542Z,10.16
2023-05-19T00:15:00.592Z,10.13
2023-05-19T00:17:31.053Z,10.11
2023-05-19T00:20:01.562Z,10.09
2023-05-19T00:22:31.941Z,10.07
2023-05-19T00:25:02.332Z,10.04
2023-05-19T00:27:32.638Z,10.01
2023-05-19T00:30:02.989Z,9.97
2023-05-19T00:32:33.382Z,9.94
2023-05-19T00:35:03.740Z,9.90
2023-05-19T00:37:34.189Z,9.83
2023-05-19T00:40:06.251Z,9.74
2023-05-19T00:42:36.708Z,9.65
2023-05-19T00:45:08.836Z,9.57
2023-05-19T00:47:39.350Z,9.50
2023-05-19T00:50:11.458Z,9.41
2023-05-19T00:52:41.981Z,9.32
2023-05-19T00:55:13.963Z,9.25
2023-05-19T00:57:45.402Z,9.20
2023-05-19T01:00:18.285Z,9.17
2023-05-19T01:02:50.370Z,9.14
2023-05-19T01:05:20.906Z,9.09
2023-05-19T01:07:53.644Z,9.05
2023-05-19T01:10:24.133Z,9.00
2023-05-19T01:12:54.505Z,8.98
2023-05-19T01:15:26.725Z,8.96
2023-05-19T01:18:07.461Z,8.93
2023-05-19T01:20:46.511Z,8.92
2023-05-19T01:23:29.834Z,8.93
2023-05-19T01:26:18.755Z,8.92
2023-05-19T01:29:31.475Z,8.90
2023-05-19T01:32:04.997Z,8.88
2023-05-19T01:34:36.202Z,8.86
2023-05-19T01:37:08.931Z,8.86
2023-05-19T01:39:41.469Z,8.87
2023-05-19T01:42:12.883Z,8.88
2023-05-19T01:44:44.140Z,8.87
2023-05-19T01:47:15.454Z,8.85
2023-05-19T01:49:46.697Z,8.84
2023-05-19T01:52:17.062Z,8.84
2023-05-19T01:54:47.472Z,8.85
2023-05-19T01:57:25.854Z,8.88
2023-05-19T02:00:05.669Z,8.90
2023-05-19T02:02:55.103Z,8.91
2023-05-19T02:05:34.740Z,8.92
2023-05-19T02:08:13.065Z,8.95
2023-05-19T02:10:48.896Z,8.96
2023-05-19T02:13:21.974Z,8.96
2023-05-19T02:15:55.496Z,8.95
2023-05-19T02:18:26.203Z,8.95
2023-05-19T02:20:56.563Z,8.94
2023-05-19T02:23:28.237Z,8.95
2023-05-19T02:26:01.447Z,8.97
2023-05-19T02:28:31.869Z,8.97
2023-05-19T02:31:02.652Z,8.98
2023-05-19T02:33:33.147Z,8.97
2023-05-19T02:36:03.534Z,8.98
2023-05-19T02:38:33.906Z,8.99
2023-05-19T02:41:04.208Z,9.00
2023-05-19T02:43:34.579Z,9.01
2023-05-19T02:46:05.002Z,9.01
2023-05-19T02:48:35.467Z,9.02
2023-05-19T02:51:07.362Z,9.04
2023-05-19T02:53:37.786Z,9.06
2023-05-19T02:56:08.823Z,9.08
2023-05-19T02:58:39.552Z,9.11
2023-05-19T03:01:10.096Z,9.13
2023-05-19T03:03:40.543Z,9.15
2023-05-19T03:06:11.465Z,9.17
2023-05-19T03:08:42.511Z,9.18
2023-05-19T03:11:13.062Z,9.20
2023-05-19T03:13:43.493Z,9.22
2023-05-19T03:16:14.031Z,9.24
2023-05-19T03:18:45.779Z,9.25
2023-05-19T03:21:16.278Z,9.27
2023-05-19T03:23:47.182Z,9.29
2023-05-19T03:26:17.551Z,9.33
2023-05-19T03:28:48.575Z,9.35
2023-05-19T03:31:18.986Z,9.37
2023-05-19T03:33:49.473Z,9.38
2023-05-19T03:36:19.794Z,9.41
2023-05-19T03:38:50.672Z,9.42
2023-05-19T03:41:21.136Z,9.43
2023-05-19T03:43:51.592Z,9.46
2023-05-19T03:46:22.137Z,9.48
2023-05-19T03:49:11.458Z,9.50
2023-05-19T03:52:03.373Z,9.55
2023-05-19T03:54:57.745Z,9.60
2023-05-19T03:57:29.810Z,9.65
2023-05-19T04:00:00.291Z,9.69
2023-05-19T04:02:31.714Z,9.74
2023-05-19T04:05:04.868Z,9.79
2023-05-19T04:07:35.979Z,9.83
2023-05-19T04:10:08.439Z,9.88
2023-05-19T04:12:38.836Z,9.93
2023-05-19T04:15:12.382Z,10.00
2023-05-19T04:17:44.399Z,10.06
2023-05-19T04:20:15.903Z,10.10
2023-05-19T04:22:46.345Z,10.16
2023-05-19T04:25:16.770Z,10.21
2023-05-19T04:27:48.274Z,10.24
2023-05-19T04:30:22.610Z,10.30
2023-05-19T04:32:54.032Z,10.35
2023-05-19T04:35:24.504Z,10.40
2023-05-19T04:37:55.773Z,10.49
2023-05-19T04:40:31.421Z,10.59
2023-05-19T04:43:02.986Z,10.67
2023-05-19T04:45:34.194Z,10.74
2023-05-19T04:48:06.120Z,10.81
2023-05-19T04:50:38.655Z,10.83
2023-05-19T04:53:09.185Z,10.87
2023-05-19T04:55:39.975Z,10.88
2023-05-19T04:58:10.850Z,10.92
2023-05-19T05:00:41.407Z,10.98
2023-05-19T05:03:14.685Z,11.04
2023-05-19T05:05:45.690Z,11.08
2023-05-19T05:08:22.847Z,11.14
2023-05-19T05:10:55.468Z,11.20
2023-05-19T05:13:27.059Z,11.26
2023-05-19T05:15:58.583Z,11.31
2023-05-19T05:18:30.629Z,11.35
2023-05-19T05:21:01.867Z,11.38
2023-05-19T05:23:33.801Z,11.40
2023-05-19T05:26:10.650Z,11.42
2023-05-19T05:28:42.527Z,11.40
2023-05-19T05:31:12.989Z,11.37
2023-05-19T05:33:44.183Z,11.35
2023-05-19T05:36:14.859Z,11.31
2023-05-19T05:38:45.479Z,11.29
2023-05-19T05:41:16.609Z,11.21
2023-05-19T05:43:47.295Z,11.20
2023-05-19T05:46:17.696Z,11.18
2023-05-19T05:48:49.353Z,11.17
2023-05-19T05:51:22.312Z,11.18
2023-05-19T05:53:55.778Z,11.15
2023-05-19T05:56:33.844Z,11.13
2023-05-19T05:59:05.814Z,11.14
2023-05-19T06:01:37.942Z,11.17
2023-05-19T06:04:10.128Z,11.18
2023-05-19T06:06:41.253Z,11.26
2023-05-19T06:09:12.536Z,11.36
2023-05-19T06:11:43.051Z,11.42
2023-05-19T06:14:13.770Z,11.50
2023-05-19T06:16:54.273Z,11.55
2023-05-19T06:19:25.773Z,11.60
2023-05-19T06:21:56.377Z,11.61
2023-05-19T06:24:27.038Z,11.66
2023-05-19T06:26:57.487Z,11.66
2023-05-19T06:29:28.453Z,11.65
2023-05-19T06:31:59.781Z,11.65
2023-05-19T06:34:30.497Z,11.64
2023-05-19T06:37:02.377Z,11.67
2023-05-19T06:39:34.950Z,11.71
2023-05-19T06:42:06.178Z,11.76
2023-05-19T06:45:15.427Z,11.81
2023-05-19T06:47:45.922Z,11.83
2023-05-19T06:50:16.737Z,11.85
2023-05-19T06:52:47.733Z,11.85
2023-05-19T06:55:18.299Z,11.81
2023-05-19T06:57:48.698Z,11.78
2023-05-19T07:00:23.079Z,11.75
2023-05-19T07:03:02.747Z,11.75
2023-05-19T07:05:33.229Z,11.77
2023-05-19T07:08:05.105Z,11.76
2023-05-19T07:10:35.907Z,11.76
2023-05-19T07:13:09.205Z,11.77
2023-05-19T07:15:40.178Z,11.79
2023-05-19T07:18:10.778Z,11.81
2023-05-19T07:20:41.249Z,11.83
2023-05-19T07:23:11.584Z,11.82
2023-05-19T07:25:42.562Z,11.84
2023-05-19T07:28:14.640Z,11.85
2023-05-19T07:30:45.833Z,11.89
2023-05-19T07:33:16.519Z,11.90
2023-05-19T07:35:47.109Z,11.85
2023-05-19T07:38:18.731Z,11.87
2023-05-19T07:40:49.251Z,11.87
2023-05-19T07:43:19.599Z,11.90
2023-05-19T07:45:50.044Z,11.93
2023-05-19T07:48:22.578Z,11.96
2023-05-19T07:50:53.528Z,12.02
2023-05-19T07:53:23.984Z,12.07
2023-05-19T07:55:55.473Z,12.13
2023-05-19T07:58:27.746Z,12.20
2023-05-19T08:00:59.732Z,12.21
2023-05-19T08:03:30.599Z,12.19
2023-05-19T08:06:01.230Z,12.20
2023-05-19T08:08:33.475Z,12.24
2023-05-19T08:11:06.649Z,12.32
2023-05-19T08:13:37.118Z,12.36
2023-05-19T08:16:08.457Z,12.43
2023-05-19T08:18:39.199Z,12.50
2023-05-19T08:21:09.619Z,12.56
2023-05-19T08:23:40.022Z,12.65
2023-05-19T08:26:10.479Z,12.73
2023-05-19T08:28:41.650Z,12.76
2023-05-19T08:31:12.033Z,12.85
2023-05-19T08:33:42.630Z,12.97
2023-05-19T08:36:13.068Z,13.10
2023-05-19T08:38:43.569Z,13.23
2023-05-19T08:41:14.029Z,13.34
2023-05-19T08:43:45.764Z,13.40
2023-05-19T08:46:17.490Z,13.40
2023-05-19T08:48:53.205Z,13.34
2023-05-19T08:51:33.838Z,13.24
2023-05-19T08:54:10.436Z,13.15
2023-05-19T08:56:41.531Z,13.08
2023-05-19T08:59:13.157Z,13.08
2023-05-19T09:01:46.404Z,13.05
2023-05-19T09:04:18.063Z,12.99
2023-05-19T09:06:48.580Z,12.95
2023-05-19T09:09:18.975Z,12.95
2023-05-19T09:11:49.821Z,12.96
2023-05-19T09:14:20.155Z,13.02
2023-05-19T09:16:52.803Z,13.12
2023-05-19T09:19:23.294Z,13.19
2023-05-19T09:22:03.258Z,13.22
2023-05-19T09:24:34.963Z,13.23
2023-05-19T09:27:05.878Z,13.38
2023-05-19T09:29:36.594Z,13.66
2023-05-19T09:32:08.158Z,13.94
2023-05-19T09:34:43.992Z,14.19
2023-05-19T09:37:15.941Z,14.44
2023-05-19T09:39:49.259Z,14.70
2023-05-19T09:42:25.018Z,14.90
2023-05-19T09:45:02.516Z,14.98
2023-05-19T09:47:38.447Z,15.10
2023-05-19T09:50:11.379Z,15.14
2023-05-19T09:52:44.655Z,15.15
2023-05-19T09:55:15.828Z,15.18
2023-05-19T09:57:47.583Z,15.25
2023-05-19T10:00:20.955Z,15.41
2023-05-19T10:02:52.350Z,15.50
2023-05-19T10:05:23.278Z,15.46
2023-05-19T10:07:55.229Z,15.38
2023-05-19T10:10:26.353Z,15.36
2023-05-19T10:12:57.078Z,15.47
2023-05-19T10:15:27.675Z,15.60
2023-05-19T10:17:59.447Z,15.70
2023-05-19T10:20:30.493Z,15.62
2023-05-19T10:23:02.953Z,15.56
2023-05-19T10:25:36.537Z,15.52
2023-05-19T10:28:11.242Z,15.54
2023-05-19T10:30:46.005Z,15.49
2023-05-19T10:33:19.995Z,15.34
2023-05-19T10:36:09.073Z,15.22
2023-05-19T10:38:53.403Z,15.08
2023-05-19T10:41:29.676Z,14.94
2023-05-19T10:44:11.046Z,14.84
2023-05-19T10:46:43.236Z,14.70
2023-05-19T10:49:22.974Z,14.62
2023-05-19T10:51:56.765Z,14.52
2023-05-19T10:54:50.060Z,14.43
2023-05-19T10:57:21.336Z,14.31
2023-05-19T10:59:51.701Z,14.30
2023-05-19T11:02:43.101Z,14.29
2023-05-19T11:05:16.645Z,14.30
2023-05-19T11:07:56.283Z,14.32
2023-05-19T11:10:27.216Z,14.42
2023-05-19T11:12:59.423Z,14.49
2023-05-19T11:15:30.344Z,14.63
2023-05-19T11:18:04.011Z,14.71
2023-05-19T11:20:39.840Z,14.69
2023-05-19T11:23:11.735Z,14.67
2023-05-19T11:25:47.845Z,14.64
2023-05-19T11:28:25.662Z,14.54
2023-05-19T11:30:57.764Z,14.39
2023-05-19T11:33:29.189Z,14.25
2023-05-19T11:35:59.625Z,14.16
2023-05-19T11:38:31.011Z,14.06
2023-05-19T11:41:01.467Z,14.03
2023-05-19T11:43:31.914Z,14.07
2023-05-19T11:46:02.364Z,14.12
2023-05-19T11:48:32.974Z,14.17
2023-05-19T11:51:04.052Z,14.14
2023-05-19T11:53:36.176Z,14.08
2023-05-19T11:56:07.644Z,14.02
2023-05-19T11:58:39.664Z,13.97
2023-05-19T12:01:11.248Z,13.87
2023-05-19T12:03:41.764Z,13.87
2023-05-19T12:06:17.383Z,13.84
2023-05-19T12:08:47.964Z,13.82
2023-05-19T12:11:20.059Z,13.82
2023-05-19T12:13:54.629Z,13.80
2023-05-19T12:16:25.235Z,13.77
2023-05-19T12:18:57.855Z,13.73
2023-05-19T12:21:34.335Z,13.73
2023-05-19T12:24:06.650Z,13.76
2023-05-19T12:26:37.966Z,13.77
2023-05-19T12:29:08.886Z,13.78
2023-05-19T12:31:39.750Z,13.78
2023-05-19T12:34:10.311Z,13.74
2023-05-19T12:36:42.182Z,13.73
2023-05-19T12:39:13.734Z,13.70
2023-05-19T12:41:47.328Z,13.67
2023-05-19T12:44:19.088Z,13.66
2023-05-19T12:46:52.991Z,13.67
2023-05-19T12:49:23.461Z,13.70
2023-05-19T12:51:55.641Z,13.75
2023-05-19T12:54:26.313Z,13.77
2023-05-19T12:56:58.776Z,13.76
2023-05-19T12:59:38.344Z,13.73
2023-05-19T13:02:09.545Z,13.69
2023-05-19T13:04:40.104Z,13.62
2023-05-19T13:07:10.575Z,13.52
2023-05-19T13:09:40.945Z,13.44
2023-05-19T13:12:11.592Z,13.42
2023-05-19T13:14:43.662Z,13.41
2023-05-19T13:17:14.018Z,13.39
2023-05-19T13:19:44.395Z,13.37
2023-05-19T13:22:15.144Z,13.30
2023-05-19T13:24:45.505Z,13.29
2023-05-19T13:27:15.850Z,13.27
2023-05-19T13:29:46.140Z,13.30
2023-05-19T13:32:16.702Z,13.28
2023-05-19T13:34:47.142Z,13.29
2023-05-19T13:37:17.568Z,13.30
2023-05-19T13:39:47.933Z,13.29
2023-05-19T13:42:18.559Z,13.33
2023-05-19T13:44:49.411Z,13.36
2023-05-19T13:47:20.033Z,13.39
2023-05-19T13:49:50.662Z,13.42
2023-05-19T13:52:21.382Z,13.48
2023-05-19T13:54:54.508Z,13.56
2023-05-19T13:57:26.480Z,13.61
2023-05-19T14:00:03.333Z,13.62
2023-05-19T14:02:44.484Z,13.63
2023-05-19T14:05:14.962Z,13.67
2023-05-19T14:07:45.533Z,13.67
2023-05-19T14:10:16.387Z,13.66
2023-05-19T14:13:12.391Z,13.66
2023-05-19T14:15:38.334Z,13.68
2023-05-19T14:18:09.028Z,13.76
2023-05-19T14:20:39.438Z,13.91
2023-05-19T14:23:09.824Z,14.14
2023-05-19T14:25:40.293Z,14.37
2023-05-19T14:28:11.628Z,14.56
2023-05-19T14:30:42.542Z,14.65
2023-05-19T14:33:13.194Z,14.79
2023-05-19T14:35:43.959Z,14.98
2023-05-19T14:38:15.381Z,15.08
2023-05-19T14:40:48.492Z,15.16
2023-05-19T14:43:19.215Z,15.23
2023-05-19T14:45:52.074Z,15.22
2023-05-19T14:48:23.419Z,15.18
2023-05-19T14:50:54.088Z,15.10
2023-05-19T14:53:24.905Z,14.93
2023-05-19T14:55:55.290Z,14.78
2023-05-19T14:58:28.230Z,14.70
2023-05-19T15:01:00.975Z,14.63
2023-05-19T15:03:31.443Z,14.51
2023-05-19T15:06:01.923Z,14.43
2023-05-19T15:08:32.333Z,14.36
2023-05-19T15:11:02.661Z,14.25
2023-05-19T15:13:33.051Z,14.20
2023-05-19T15:16:16.190Z,14.14
2023-05-19T15:18:47.688Z,14.16
2023-05-19T15:21:18.460Z,14.17
2023-05-19T15:23:48.956Z,14.17
2023-05-19T15:26:19.352Z,14.21
2023-05-19T15:28:49.637Z,14.31
2023-05-19T15:31:20.101Z,14.37
2023-05-19T15:33:50.554Z,14.40
2023-05-19T15:36:20.953Z,14.42
2023-05-19T15:38:51.343Z,14.45
2023-05-19T15:41:21.938Z,14.47
2023-05-19T15:43:53.365Z,14.47
2023-05-19T15:46:24.160Z,14.44
2023-05-19T15:48:54.664Z,14.35
2023-05-19T15:51:25.250Z,14.33
2023-05-19T15:53:55.617Z,14.30
2023-05-19T15:56:26.038Z,14.28
2023-05-19T15:58:56.468Z,14.28
2023-05-19T16:01:27.354Z,14.29
2023-05-19T16:03:57.950Z,14.28
2023-05-19T16:06:28.584Z,14.29
2023-05-19T16:08:59.054Z,14.28
2023-05-19T16:11:29.801Z,14.29
2023-05-19T16:14:00.247Z,14.31
2023-05-19T16:16:30.682Z,14.30
2023-05-19T16:19:01.223Z,14.25
2023-05-19T16:21:32.178Z,14.24
2023-05-19T16:24:02.581Z,14.23
2023-05-19T16:26:34.406Z,14.23
2023-05-19T16:29:04.963Z,14.24
2023-05-19T16:31:35.393Z,14.26
2023-05-19T16:34:05.830Z,14.27
2023-05-19T16:36:36.502Z,14.25
2023-05-19T16:39:07.009Z,14.24
2023-05-19T16:41:37.529Z,14.24
2023-05-19T16:44:08.059Z,14.19
2023-05-19T16:46:38.470Z,14.12
2023-05-19T16:49:09.125Z,14.08
2023-05-19T16:51:39.505Z,14.05
2023-05-19T16:54:09.842Z,14.00
2023-05-19T16:56:40.226Z,13.98
2023-05-19T16:59:11.593Z,13.98
2023-05-19T17:01:42.036Z,13.95
2023-05-19T17:04:13.331Z,13.93
2023-05-19T17:06:43.914Z,13.92
2023-05-19T17:09:14.338Z,13.90
2023-05-19T17:11:44.814Z,13.83
2023-05-19T17:14:15.340Z,13.80
2023-05-19T17:16:45.740Z,13.78
2023-05-19T17:19:16.962Z,13.74
2023-05-19T17:21:47.377Z,13.72
2023-05-19T17:24:17.758Z,13.68
2023-05-19T17:26:48.113Z,13.66
2023-05-19T17:29:18.498Z,13.64
2023-05-19T17:31:48.923Z,13.59
2023-05-19T17:34:19.301Z,13.55
2023-05-19T17:36:50.524Z,13.54
2023-05-19T17:39:21.247Z,13.53
2023-05-19T17:41:51.667Z,13.52
2023-05-19T17:44:22.017Z,13.48
2023-05-19T17:46:52.773Z,13.42
2023-05-19T17:49:25.742Z,13.38
2023-05-19T17:51:57.672Z,13.34
2023-05-19T17:54:28.937Z,13.32
2023-05-19T17:57:03.381Z,13.28
2023-05-19T17:59:35.274Z,13.28
2023-05-19T18:02:07.215Z,13.27
2023-05-19T18:04:38.949Z,13.26
2023-05-19T18:07:11.932Z,13.23
2023-05-19T18:09:45.579Z,13.19
2023-05-19T18:12:16.335Z,13.18
2023-05-19T18:14:47.156Z,13.14
2023-05-19T18:17:17.469Z,13.11
2023-05-19T18:19:49.522Z,13.09
2023-05-19T18:22:20.112Z,13.08
2023-05-19T18:24:50.577Z,13.08
2023-05-19T18:27:20.894Z,13.07
2023-05-19T18:29:51.339Z,13.05
2023-05-19T18:32:21.738Z,13.04
2023-05-19T18:34:52.147Z,13.04
2023-05-19T18:37:22.818Z,13.01
2023-05-19T18:39:53.216Z,12.99
2023-05-19T18:42:25.636Z,12.98
2023-05-19T18:44:55.989Z,12.97
2023-05-19T18:47:26.674Z,12.96
2023-05-19T18:49:57.250Z,12.94
2023-05-19T18:52:28.705Z,12.91
2023-05-19T18:55:01.122Z,12.92
2023-05-19T18:57:31.681Z,12.91
2023-05-19T19:00:02.393Z,12.91
2023-05-19T19:02:32.759Z,12.91
2023-05-19T19:05:05.134Z,12.89
2023-05-19T19:07:35.635Z,12.88
2023-05-19T19:10:06.504Z,12.88
2023-05-19T19:12:37.057Z,12.88
2023-05-19T19:15:09.499Z,12.86
2023-05-19T19:17:41.094Z,12.85
2023-05-19T19:20:13.053Z,12.84
2023-05-19T19:22:43.469Z,12.83
2023-05-19T19:25:13.900Z,12.82
2023-05-19T19:27:44.205Z,12.80
2023-05-19T19:30:15.066Z,12.79
2023-05-19T19:32:45.502Z,12.79
2023-05-19T19:35:16.836Z,12.76
2023-05-19T19:37:47.917Z,12.75
2023-05-19T19:40:18.704Z,12.74
2023-05-19T19:42:49.091Z,12.74
2023-05-19T19:45:20.953Z,12.74
2023-05-19T19:47:51.739Z,12.74
2023-05-19T19:50:23.644Z,12.73
2023-05-19T19:52:54.020Z,12.72
2023-05-19T19:55:24.456Z,12.72
2023-05-19T19:57:54.806Z,12.71
2023-05-19T20:00:25.583Z,12.70
2023-05-19T20:03:04.903Z,12.70
2023-05-19T20:05:38.090Z,12.70
2023-05-19T20:08:08.633Z,12.68
2023-05-19T20:10:39.045Z,12.67
2023-05-19T20:13:09.501Z,12.66
2023-05-19T20:15:39.904Z,12.65
2023-05-19T20:18:10.870Z,12.63
2023-05-19T20:20:42.315Z,12.62
2023-05-19T20:23:13.446Z,12.62
2023-05-19T20:25:53.697Z,12.62
2023-05-19T20:28:33.264Z,12.60
2023-05-19T20:31:03.864Z,12.60
2023-05-19T20:33:34.308Z,12.59
2023-05-19T20:36:05.904Z,12.58
2023-05-19T20:38:36.289Z,12.59
2023-05-19T20:41:06.705Z,12.57
2023-05-19T20:43:37.118Z,12.57
2023-05-19T20:46:07.605Z,12.56
2023-05-19T20:48:38.181Z,12.56
2023-05-19T20:51:09.107Z,12.54
2023-05-19T20:53:39.476Z,12.54
2023-05-19T20:56:10.583Z,12.53
2023-05-19T20:58:41.134Z,12.52
2023-05-19T21:01:11.573Z,12.51
2023-05-19T21:03:42.026Z,12.49
2023-05-19T21:06:12.470Z,12.48
2023-05-19T21:08:42.884Z,12.48
2023-05-19T21:11:13.366Z,12.48
2023-05-19T21:13:43.744Z,12.48
2023-05-19T21:16:14.095Z,12.47
2023-05-19T21:18:44.457Z,12.47
2023-05-19T21:21:14.840Z,12.45
2023-05-19T21:23:45.236Z,12.45
2023-05-19T21:26:15.555Z,12.44
2023-05-19T21:28:46.296Z,12.43
2023-05-19T21:31:16.747Z,12.42
2023-05-19T21:33:47.245Z,12.40
2023-05-19T21:36:18.420Z,12.39
2023-05-19T21:38:48.841Z,12.40
2023-05-19T21:41:19.330Z,12.39
2023-05-19T21:43:49.688Z,12.38
2023-05-19T21:46:20.201Z,12.38
2023-05-19T21:48:50.584Z,12.37
2023-05-19T21:51:20.996Z,12.37
2023-05-19T21:53:51.453Z,12.37
2023-05-19T21:56:22.752Z,12.37
2023-05-19T21:58:53.209Z,12.36
2023-05-19T22:01:23.779Z,12.35
2023-05-19T22:03:55.054Z,12.33
2023-05-19T22:06:25.432Z,12.33
2023-05-19T22:08:55.873Z,12.32
2023-05-19T22:11:26.561Z,12.32
2023-05-19T22:13:56.918Z,12.32
2023-05-19T22:16:27.448Z,12.31
2023-05-19T22:18:58.206Z,12.32
2023-05-19T22:21:28.680Z,12.31
2023-05-19T22:23:59.089Z,12.32
2023-05-19T22:26:29.459Z,12.32
2023-05-19T22:28:59.858Z,12.32
2023-05-19T22:31:31.065Z,12.31
2023-05-19T22:34:01.466Z,12.29
2023-05-19T22:36:32.256Z,12.27
2023-05-19T22:39:02.672Z,12.28
2023-05-19T22:41:33.093Z,12.27
2023-05-19T22:44:03.613Z,12.26
2023-05-19T22:46:34.250Z,12.25
2023-05-19T22:49:04.784Z,12.25
2023-05-19T22:51:35.163Z,12.24
2023-05-19T22:54:05.919Z,12.23
2023-05-19T22:56:36.377Z,12.23
2023-05-19T22:59:07.005Z,12.22
2023-05-19T23:01:37.492Z,12.21
2023-05-19T23:04:08.259Z,12.19
2023-05-19T23:06:38.813Z,12.20
2023-05-19T23:09:09.213Z,12.21
2023-05-19T23:11:39.623Z,12.20
2023-05-19T23:14:09.983Z,12.19
2023-05-19T23:16:40.416Z,12.19
2023-05-19T23:19:11.065Z,12.19
2023-05-19T23:21:41.458Z,12.19
2023-05-19T23:24:11.796Z,12.18
2023-05-19T23:26:42.748Z,12.18
2023-05-19T23:29:15.131Z,12.16
2023-05-19T23:31:46.122Z,12.15
2023-05-19T23:34:16.593Z,12.14
2023-05-19T23:36:46.965Z,12.14
2023-05-19T23:39:17.428Z,12.14
2023-05-19T23:41:47.804Z,12.13
2023-05-19T23:44:19.131Z,12.13
2023-05-19T23:46:49.621Z,12.13
2023-05-19T23:49:20.439Z,12.13
2023-05-19T23:51:50.898Z,12.11
2023-05-19T23:54:21.260Z,12.11
2023-05-19T23:56:51.665Z,12.11
2023-05-19T23:59:22.129Z,12.10
